createdAt,value
2022-09-09T00:01:25.239Z,70.20
2022-09-09T00:03:59.193Z,70.26
2022-09-09T00:06:32.623Z,70.32
2022-09-09T00:09:06.375Z,70.24
2022-09-09T00:11:41.600Z,70.69
2022-09-09T00:14:17.601Z,70.78
2022-09-09T00:16:51.560Z,71.14
2022-09-09T00:19:25.036Z,71.69
2022-09-09T00:22:05.183Z,71.86
2022-09-09T00:24:42.680Z,72.14
2022-09-09T00:27:18.333Z,72.29
2022-09-09T00:29:54.797Z,71.93
2022-09-09T00:32:23.525Z,71.88
2022-09-09T00:34:54.365Z,71.89
2022-09-09T00:37:26.767Z,71.91
2022-09-09T00:39:59.410Z,71.69
2022-09-09T00:42:34.107Z,71.73
2022-09-09T00:45:15.017Z,71.39
2022-09-09T00:47:48.230Z,71.22
2022-09-09T00:50:30.702Z,71.10
2022-09-09T00:53:13.295Z,71.11
2022-09-09T00:55:49.735Z,71.13
2022-09-09T00:58:17.740Z,71.37
2022-09-09T01:00:49.994Z,71.11
2022-09-09T01:03:35.517Z,71.48
2022-09-09T01:06:14.497Z,71.74
2022-09-09T01:09:07.074Z,71.60
2022-09-09T01:11:44.952Z,71.30
2022-09-09T01:14:26.957Z,71.35
2022-09-09T01:16:58.467Z,71.73
2022-09-09T01:19:40.378Z,71.49
2022-09-09T01:22:16.108Z,71.83
2022-09-09T01:24:57.501Z,71.74
2022-09-09T01:27:48.648Z,71.61
2022-09-09T01:30:19.353Z,71.86
2022-09-09T01:32:50.162Z,71.57
2022-09-09T01:35:44.137Z,71.62
2022-09-09T01:38:12.256Z,71.81
2022-09-09T01:40:40.874Z,71.69
2022-09-09T01:43:10.561Z,71.45
2022-09-09T01:45:40.636Z,71.18
2022-09-09T01:48:08.876Z,71.18
2022-09-09T01:50:45.688Z,70.67
2022-09-09T01:53:16.936Z,71.02
2022-09-09T01:55:54.224Z,70.77
2022-09-09T01:58:34.061Z,70.61
2022-09-09T02:01:08.522Z,70.79
2022-09-09T02:03:37.498Z,71.01
2022-09-09T02:06:27.174Z,71.32
2022-09-09T02:09:03.299Z,71.46
2022-09-09T02:11:33.020Z,71.49
2022-09-09T02:14:29.240Z,71.43
2022-09-09T02:17:00.296Z,71.47
2022-09-09T02:19:43.453Z,71.62
2022-09-09T02:22:25.745Z,71.14
2022-09-09T02:24:59.943Z,71.27
2022-09-09T02:27:31.273Z,71.28
2022-09-09T02:30:03.557Z,71.36
2022-09-09T02:32:44.924Z,71.45
2022-09-09T02:35:17.832Z,72.29
2022-09-09T02:37:48.073Z,72.23
2022-09-09T02:40:17.742Z,71.95
2022-09-09T02:42:56.608Z,72.04
2022-09-09T02:45:29.579Z,72.24
2022-09-09T02:48:04.248Z,71.91
2022-09-09T02:50:35.292Z,72.35
2022-09-09T02:53:12.359Z,72.57
2022-09-09T02:55:51.223Z,72.54
2022-09-09T02:58:22.349Z,72.60
2022-09-09T03:01:02.128Z,72.91
2022-09-09T03:03:31.275Z,73.18
2022-09-09T03:06:02.825Z,73.20
2022-09-09T03:08:30.804Z,72.83
2022-09-09T03:11:02.347Z,72.74
2022-09-09T03:13:32.961Z,73.09
2022-09-09T03:16:02.380Z,72.70
2022-09-09T03:18:35.445Z,72.89
2022-09-09T03:21:05.335Z,72.83
2022-09-09T03:23:33.442Z,72.80
2022-09-09T03:26:04.234Z,73.54
2022-09-09T03:28:41.053Z,74.10
2022-09-09T03:31:11.300Z,75.40
2022-09-09T03:33:43.322Z,75.72
2022-09-09T03:36:14.248Z,75.89
2022-09-09T03:38:42.321Z,75.07
2022-09-09T03:41:10.728Z,75.48
2022-09-09T03:43:40.945Z,75.37
2022-09-09T03:46:10.470Z,74.58
2022-09-09T03:48:38.813Z,74.31
2022-09-09T03:51:07.246Z,74.63
2022-09-09T03:53:38.827Z,75.48
2022-09-09T03:56:07.721Z,75.21
2022-09-09T03:58:36.141Z,75.73
2022-09-09T04:01:14.180Z,76.15
2022-09-09T04:03:43.759Z,76.71
2022-09-09T04:06:14.526Z,77.17
2022-09-09T04:08:46.125Z,77.71
2022-09-09T04:11:15.358Z,77.32
2022-09-09T04:13:45.509Z,76.92
2022-09-09T04:16:16.654Z,76.25
2022-09-09T04:18:45.560Z,76.28
2022-09-09T04:21:16.422Z,75.70
2022-09-09T04:23:44.345Z,75.35
2022-09-09T04:26:12.430Z,75.20
2022-09-09T04:28:41.029Z,75.30
2022-09-09T04:31:19.486Z,74.25
2022-09-09T04:33:48.868Z,74.18
2022-09-09T04:36:19.228Z,73.46
2022-09-09T04:38:49.864Z,73.27
2022-09-09T04:41:18.629Z,73.44
2022-09-09T04:43:49.412Z,73.08
2022-09-09T04:46:19.688Z,73.14
2022-09-09T04:48:50.716Z,72.95
2022-09-09T04:51:19.498Z,72.80
2022-09-09T04:53:51.700Z,72.67
2022-09-09T04:56:20.494Z,72.44
2022-09-09T04:58:53.233Z,72.82
2022-09-09T05:01:26.762Z,72.38
2022-09-09T05:03:59.220Z,73.14
2022-09-09T05:06:27.231Z,73.24
2022-09-09T05:08:59.966Z,73.51
2022-09-09T05:11:33.201Z,73.65
2022-09-09T05:14:06.776Z,73.34
2022-09-09T05:16:36.256Z,73.49
2022-09-09T05:19:04.957Z,73.03
2022-09-09T05:21:44.672Z,72.76
2022-09-09T05:24:13.609Z,72.42
2022-09-09T05:26:42.300Z,72.30
2022-09-09T05:29:10.269Z,72.00
2022-09-09T05:31:40.144Z,71.76
2022-09-09T05:34:12.435Z,71.74
2022-09-09T05:36:40.931Z,71.69
2022-09-09T05:39:09.775Z,71.37
2022-09-09T05:41:37.677Z,71.03
2022-09-09T05:44:06.543Z,70.91
2022-09-09T05:46:40.766Z,71.11
2022-09-09T05:49:09.224Z,71.19
2022-09-09T05:51:38.552Z,71.14
2022-09-09T05:54:11.432Z,71.21
2022-09-09T05:56:45.480Z,70.93
2022-09-09T05:59:15.922Z,70.88
2022-09-09T06:01:46.255Z,70.71
2022-09-09T06:04:40.646Z,70.44
2022-09-09T06:07:09.258Z,70.24
2022-09-09T06:09:37.865Z,70.57
2022-09-09T06:12:06.453Z,70.20
2022-09-09T06:14:37.814Z,70.49
2022-09-09T06:17:07.577Z,70.51
2022-09-09T06:19:35.465Z,70.67
2022-09-09T06:22:03.890Z,70.50
2022-09-09T06:24:35.131Z,70.50
2022-09-09T06:27:04.553Z,70.20
2022-09-09T06:29:35.745Z,70.46
2022-09-09T06:32:04.816Z,70.67
2022-09-09T06:34:34.218Z,70.72
2022-09-09T06:37:02.301Z,70.85
2022-09-09T06:39:41.693Z,70.96
2022-09-09T06:42:10.560Z,71.04
2022-09-09T06:45:05.185Z,71.48
2022-09-09T06:47:38.253Z,71.55
2022-09-09T06:50:09.504Z,71.58
2022-09-09T06:52:37.752Z,72.20
2022-09-09T06:55:07.409Z,72.49
2022-09-09T06:57:37.581Z,72.72
2022-09-09T07:00:12.310Z,73.09
2022-09-09T07:02:42.061Z,73.57
2022-09-09T07:05:12.670Z,73.12
2022-09-09T07:07:42.828Z,73.51
2022-09-09T07:10:12.422Z,73.04
2022-09-09T07:12:41.527Z,73.14
2022-09-09T07:15:12.229Z,73.12
2022-09-09T07:17:43.449Z,73.22
2022-09-09T07:20:13.229Z,73.39
2022-09-09T07:22:41.936Z,72.71
2022-09-09T07:25:11.432Z,72.16
2022-09-09T07:27:39.533Z,71.43
2022-09-09T07:30:09.120Z,71.22
2022-09-09T07:32:37.068Z,71.20
2022-09-09T07:35:05.537Z,70.82
2022-09-09T07:37:34.807Z,70.86
2022-09-09T07:40:04.622Z,71.02
2022-09-09T07:42:32.768Z,70.96
2022-09-09T07:45:00.630Z,70.93
2022-09-09T07:47:28.713Z,70.82
2022-09-09T07:49:57.372Z,70.63
2022-09-09T07:52:30.929Z,70.24
2022-09-09T07:55:05.420Z,70.41
2022-09-09T07:57:34.108Z,70.17
2022-09-09T08:00:03.144Z,70.28
2022-09-09T08:02:40.279Z,70.31
2022-09-09T08:05:09.741Z,70.06
2022-09-09T08:07:39.080Z,70.31
2022-09-09T08:10:09.260Z,70.17
2022-09-09T08:12:38.508Z,70.26
2022-09-09T08:15:07.610Z,70.06
2022-09-09T08:17:35.876Z,69.83
2022-09-09T08:20:08.161Z,70.03
2022-09-09T08:22:38.600Z,69.84
2022-09-09T08:25:09.429Z,69.56
2022-09-09T08:27:40.065Z,69.75
2022-09-09T08:30:09.470Z,69.41
2022-09-09T08:32:38.308Z,69.28
2022-09-09T08:35:09.325Z,69.32
2022-09-09T08:37:37.273Z,69.55
2022-09-09T08:40:06.770Z,69.17
2022-09-09T08:42:49.543Z,69.17
2022-09-09T08:45:27.824Z,68.76
2022-09-09T08:48:08.583Z,69.20
2022-09-09T08:50:39.388Z,68.92
2022-09-09T08:53:18.443Z,68.09
2022-09-09T08:55:49.894Z,67.50
2022-09-09T08:58:25.453Z,66.23
2022-09-09T09:01:27.699Z,64.65
2022-09-09T09:04:04.981Z,64.44
2022-09-09T09:06:47.891Z,64.12
2022-09-09T09:09:23.944Z,64.04
2022-09-09T09:11:55.534Z,63.15
2022-09-09T09:17:06.534Z,60.80
2022-09-09T09:19:36.720Z,60.29
2022-09-09T09:22:12.380Z,60.58
2022-09-09T09:24:51.422Z,60.50
2022-09-09T09:27:32.563Z,60.60
2022-09-09T09:30:23.882Z,60.62
2022-09-09T09:33:02.593Z,60.50
2022-09-09T09:35:30.721Z,60.00
2022-09-09T09:40:53.905Z,54.19
2022-09-09T09:43:25.694Z,53.62
2022-09-09T09:46:14.289Z,53.08
2022-09-09T09:48:44.037Z,53.40
2022-09-09T09:51:14.897Z,53.86
2022-09-09T09:53:44.562Z,54.37
2022-09-09T09:56:17.178Z,54.74
2022-09-09T09:58:52.304Z,55.16
2022-09-09T10:01:28.158Z,54.65
2022-09-09T10:03:59.823Z,52.76
2022-09-09T10:06:32.376Z,50.42
2022-09-09T10:09:00.200Z,50.72
2022-09-09T10:11:44.595Z,50.62
2022-09-09T10:14:21.599Z,50.33
2022-09-09T10:17:04.329Z,50.49
2022-09-09T10:19:34.582Z,48.82
2022-09-09T10:22:18.365Z,48.65
2022-09-09T10:25:20.377Z,48.46
2022-09-09T10:28:06.189Z,48.26
2022-09-09T10:30:45.030Z,48.40
2022-09-09T10:33:24.258Z,48.12
2022-09-09T10:36:01.041Z,48.09
2022-09-09T10:38:36.765Z,48.50
2022-09-09T10:41:15.267Z,48.27
2022-09-09T10:44:14.716Z,48.09
2022-09-09T10:47:02.327Z,48.33
2022-09-09T10:49:59.666Z,46.01
2022-09-09T10:52:34.677Z,44.65
2022-09-09T10:55:10.507Z,44.77
2022-09-09T10:57:42.105Z,45.39
2022-09-09T11:00:20.376Z,45.60
2022-09-09T11:02:53.253Z,45.07
2022-09-09T11:05:26.846Z,44.43
2022-09-09T11:08:00.309Z,44.20
2022-09-09T11:10:35.737Z,43.80
2022-09-09T11:13:07.818Z,43.74
2022-09-09T11:15:41.893Z,42.95
2022-09-09T11:18:14.665Z,41.88
2022-09-09T11:20:45.836Z,41.50
2022-09-09T11:23:18.480Z,41.30
2022-09-09T11:25:51.897Z,40.82
2022-09-09T11:28:33.929Z,41.13
2022-09-09T11:31:16.996Z,40.95
2022-09-09T11:33:58.488Z,40.16
2022-09-09T11:36:56.938Z,40.11
2022-09-09T11:39:55.146Z,37.92
2022-09-09T11:42:26.186Z,38.20
2022-09-09T11:44:55.750Z,38.17
2022-09-09T11:47:30.191Z,37.62
2022-09-09T11:50:10.766Z,37.69
2022-09-09T11:52:43.229Z,37.81
2022-09-09T11:55:13.052Z,38.20
2022-09-09T11:57:43.792Z,38.48
2022-09-09T12:00:36.429Z,39.15
2022-09-09T12:03:05.252Z,39.36
2022-09-09T12:05:43.024Z,39.49
2022-09-09T12:08:19.599Z,39.45
2022-09-09T12:10:56.209Z,40.03
2022-09-09T12:13:26.274Z,39.79
2022-09-09T12:15:55.729Z,39.82
2022-09-09T12:18:26.358Z,40.09
2022-09-09T12:21:02.746Z,40.21
2022-09-09T12:23:43.427Z,40.13
2022-09-09T12:26:38.537Z,40.44
2022-09-09T12:29:17.754Z,40.89
2022-09-09T12:31:52.370Z,40.86
2022-09-09T12:34:29.287Z,41.02
2022-09-09T12:37:05.114Z,41.75
2022-09-09T12:39:37.740Z,42.00
2022-09-09T12:42:06.179Z,42.30
2022-09-09T12:44:34.342Z,42.46
2022-09-09T12:47:04.787Z,42.08
2022-09-09T12:49:37.322Z,42.38
2022-09-09T12:52:07.998Z,42.10
2022-09-09T12:54:38.692Z,42.86
2022-09-09T12:57:07.280Z,43.34
2022-09-09T12:59:40.198Z,44.09
2022-09-09T13:02:19.679Z,44.11
2022-09-09T13:04:48.412Z,42.52
2022-09-09T13:07:17.417Z,42.94
2022-09-09T13:09:49.816Z,42.50
2022-09-09T13:12:20.903Z,41.17
2022-09-09T13:14:51.788Z,40.49
2022-09-09T13:17:23.280Z,40.35
2022-09-09T13:19:53.770Z,39.99
2022-09-09T13:22:38.107Z,40.53
2022-09-09T13:25:19.955Z,40.50
2022-09-09T13:27:56.042Z,39.98
2022-09-09T13:30:25.985Z,40.03
2022-09-09T13:33:24.164Z,40.32
2022-09-09T13:35:56.134Z,40.93
2022-09-09T13:38:27.747Z,41.21
2022-09-09T13:41:03.201Z,40.66
2022-09-09T13:43:32.841Z,40.63
2022-09-09T13:46:02.703Z,41.06
2022-09-09T13:48:30.953Z,40.69
2022-09-09T13:51:01.092Z,39.90
2022-09-09T13:53:29.575Z,40.99
2022-09-09T13:55:57.833Z,39.88
2022-09-09T13:58:27.541Z,40.52
2022-09-09T14:00:55.609Z,40.49
2022-09-09T14:03:23.526Z,40.78
2022-09-09T14:05:51.482Z,41.31
2022-09-09T14:08:29.290Z,41.58
2022-09-09T14:10:59.265Z,42.30
2022-09-09T14:13:28.741Z,41.97
2022-09-09T14:15:56.709Z,41.99
2022-09-09T14:18:26.301Z,42.13
2022-09-09T14:20:54.167Z,43.14
2022-09-09T14:23:22.941Z,42.14
2022-09-09T14:25:50.992Z,42.26
2022-09-09T14:28:25.857Z,42.15
2022-09-09T14:31:08.762Z,42.65
2022-09-09T14:33:37.634Z,43.41
2022-09-09T14:36:05.846Z,44.32
2022-09-09T14:38:36.115Z,44.25
2022-09-09T14:41:04.695Z,44.49
2022-09-09T14:43:33.452Z,43.95
2022-09-09T14:46:09.027Z,44.25
2022-09-09T14:48:37.490Z,44.57
2022-09-09T14:51:09.777Z,44.74
2022-09-09T14:53:38.552Z,44.05
2022-09-09T14:56:09.318Z,43.47
2022-09-09T14:58:37.559Z,42.80
2022-09-09T15:01:08.313Z,43.15
2022-09-09T15:03:36.165Z,43.97
2022-09-09T15:06:09.491Z,44.91
2022-09-09T15:08:41.784Z,45.34
2022-09-09T15:11:12.436Z,45.62
2022-09-09T15:13:41.920Z,45.97
2022-09-09T15:16:13.466Z,46.01
2022-09-09T15:18:43.778Z,45.75
2022-09-09T15:21:11.825Z,46.14
2022-09-09T15:23:40.224Z,46.46
2022-09-09T15:26:08.367Z,47.17
2022-09-09T15:28:38.998Z,46.59
2022-09-09T15:31:09.205Z,46.95
2022-09-09T15:33:39.399Z,46.95
2022-09-09T15:36:18.765Z,47.24
2022-09-09T15:38:46.817Z,47.26
2022-09-09T15:41:15.645Z,46.93
2022-09-09T15:43:46.584Z,47.55
2022-09-09T15:46:33.172Z,47.73
2022-09-09T15:49:10.064Z,48.24
2022-09-09T15:51:43.942Z,48.26
2022-09-09T15:54:14.077Z,48.30
2022-09-09T15:56:42.792Z,48.58
2022-09-09T15:59:11.128Z,48.50
2022-09-09T16:01:40.443Z,48.83
2022-09-09T16:04:09.965Z,49.25
2022-09-09T16:06:38.496Z,49.39
2022-09-09T16:09:07.960Z,49.60
2022-09-09T16:11:37.605Z,49.79
2022-09-09T16:14:07.336Z,49.70
2022-09-09T16:16:36.870Z,49.93
2022-09-09T16:19:07.397Z,49.77
2022-09-09T16:21:40.569Z,50.25
2022-09-09T16:24:10.369Z,50.63
2022-09-09T16:26:40.167Z,50.79
2022-09-09T16:29:09.415Z,50.84
2022-09-09T16:31:37.604Z,51.19
2022-09-09T16:34:06.389Z,51.25
2022-09-09T16:36:37.462Z,51.31
2022-09-09T16:39:07.767Z,51.37
2022-09-09T16:41:35.811Z,51.34
2022-09-09T16:44:04.996Z,51.68
2022-09-09T16:46:36.407Z,51.68
2022-09-09T16:49:06.156Z,52.03
2022-09-09T16:51:37.683Z,52.42
2022-09-09T16:54:08.016Z,52.60
2022-09-09T16:56:38.831Z,52.59
2022-09-09T16:59:09.746Z,52.66
2022-09-09T17:01:39.082Z,52.79
2022-09-09T17:04:09.005Z,52.96
2022-09-09T17:06:38.976Z,52.95
2022-09-09T17:09:09.041Z,53.19
2022-09-09T17:11:37.716Z,53.15
2022-09-09T17:14:06.192Z,53.34
2022-09-09T17:16:36.033Z,53.25
2022-09-09T17:19:05.265Z,53.36
2022-09-09T17:21:34.211Z,53.28
2022-09-09T17:24:03.992Z,53.25
2022-09-09T17:26:34.011Z,53.02
2022-09-09T17:29:02.994Z,53.10
2022-09-09T17:31:33.595Z,53.08
2022-09-09T17:34:02.329Z,53.81
2022-09-09T17:36:32.724Z,54.09
2022-09-09T17:39:01.707Z,54.48
2022-09-09T17:41:32.523Z,54.59
2022-09-09T17:44:00.968Z,55.11
2022-09-09T17:46:30.821Z,55.32
2022-09-09T17:49:00.917Z,55.54
2022-09-09T17:51:32.008Z,55.97
2022-09-09T17:54:03.061Z,56.16
2022-09-09T17:56:33.741Z,56.32
2022-09-09T17:59:03.083Z,56.53
2022-09-09T18:01:33.215Z,56.75
2022-09-09T18:04:02.877Z,57.23
2022-09-09T18:06:34.441Z,57.59
2022-09-09T18:09:05.368Z,58.12
2022-09-09T18:11:38.625Z,58.35
2022-09-09T18:14:06.849Z,58.97
2022-09-09T18:16:36.108Z,59.13
2022-09-09T18:19:06.318Z,59.11
2022-09-09T18:21:35.182Z,58.94
2022-09-09T18:24:05.862Z,58.42
2022-09-09T18:26:36.156Z,58.25
2022-09-09T18:29:07.784Z,58.06
2022-09-09T18:31:37.713Z,57.96
2022-09-09T18:34:07.449Z,58.25
2022-09-09T18:36:38.691Z,58.42
2022-09-09T18:39:08.685Z,58.51
2022-09-09T18:41:39.765Z,58.38
2022-09-09T18:44:10.860Z,58.19
2022-09-09T18:46:39.886Z,57.74
2022-09-09T18:49:08.030Z,58.05
2022-09-09T18:51:37.107Z,58.07
2022-09-09T18:54:07.900Z,58.31
2022-09-09T18:56:37.868Z,58.37
2022-09-09T18:59:07.816Z,58.66
2022-09-09T19:01:36.564Z,58.84
2022-09-09T19:04:06.091Z,58.96
2022-09-09T19:06:37.358Z,59.43
2022-09-09T19:09:05.777Z,59.38
2022-09-09T19:11:34.236Z,59.40
2022-09-09T19:14:05.891Z,59.58
2022-09-09T19:16:35.693Z,59.69
2022-09-09T19:19:06.112Z,59.64
2022-09-09T19:21:36.048Z,59.74
2022-09-09T19:24:06.677Z,59.87
2022-09-09T19:26:40.366Z,59.88
2022-09-09T19:29:10.880Z,60.04
2022-09-09T19:31:39.247Z,60.12
2022-09-09T19:34:07.140Z,60.21
2022-09-09T19:36:35.129Z,60.13
2022-09-09T19:39:03.228Z,60.24
2022-09-09T19:41:32.479Z,60.24
2022-09-09T19:44:02.504Z,60.29
2022-09-09T19:46:33.850Z,60.82
2022-09-09T19:49:02.700Z,60.77
2022-09-09T19:51:32.289Z,61.18
2022-09-09T19:54:02.746Z,61.17
2022-09-09T19:56:31.824Z,61.16
2022-09-09T19:59:00.577Z,60.94
2022-09-09T20:01:30.723Z,61.16
2022-09-09T20:04:02.900Z,61.38
2022-09-09T20:06:34.360Z,61.96
2022-09-09T20:09:02.946Z,61.88
2022-09-09T20:11:30.833Z,61.89
2022-09-09T20:13:58.760Z,62.08
2022-09-09T20:16:28.868Z,62.15
2022-09-09T20:18:58.152Z,62.47
2022-09-09T20:21:31.248Z,62.61
2022-09-09T20:24:01.477Z,62.45
2022-09-09T20:26:32.226Z,62.30
2022-09-09T20:29:00.859Z,62.50
2022-09-09T20:31:30.705Z,62.27
2022-09-09T20:33:59.327Z,62.53
2022-09-09T20:36:30.238Z,62.50
2022-09-09T20:38:59.892Z,62.36
2022-09-09T20:41:29.896Z,62.36
2022-09-09T20:43:59.384Z,62.35
2022-09-09T20:46:29.329Z,62.45
2022-09-09T20:49:02.298Z,62.38
2022-09-09T20:51:34.380Z,62.45
2022-09-09T20:54:04.304Z,62.41
2022-09-09T20:56:34.213Z,61.97
2022-09-09T20:59:02.739Z,61.86
2022-09-09T21:01:31.623Z,61.60
2022-09-09T21:04:00.075Z,61.59
2022-09-09T21:06:27.933Z,61.85
2022-09-09T21:08:57.076Z,62.01
2022-09-09T21:11:25.073Z,62.20
2022-09-09T21:13:52.870Z,62.26
2022-09-09T21:16:21.274Z,62.60
2022-09-09T21:18:49.333Z,62.92
2022-09-09T21:21:19.507Z,63.14
2022-09-09T21:23:47.377Z,63.41
2022-09-09T21:26:17.793Z,63.28
2022-09-09T21:28:45.628Z,63.68
2022-09-09T21:31:15.852Z,63.99
2022-09-09T21:33:43.877Z,63.98
2022-09-09T21:36:13.456Z,64.09
2022-09-09T21:38:41.688Z,63.91
2022-09-09T21:41:12.896Z,64.48
2022-09-09T21:43:42.862Z,64.37
2022-09-09T21:46:12.555Z,64.63
2022-09-09T21:48:40.712Z,64.53
2022-09-09T21:51:11.218Z,64.57
2022-09-09T21:53:39.697Z,64.57
2022-09-09T21:56:10.607Z,64.69
2022-09-09T21:58:39.496Z,65.15
2022-09-09T22:01:11.679Z,64.87
2022-09-09T22:03:40.902Z,64.72
2022-09-09T22:06:10.198Z,64.62
2022-09-09T22:08:38.199Z,64.91
2022-09-09T22:11:08.842Z,64.89
2022-09-09T22:13:38.138Z,65.23
2022-09-09T22:16:08.162Z,65.23
2022-09-09T22:18:38.084Z,65.13
2022-09-09T22:21:06.961Z,65.00
2022-09-09T22:23:34.839Z,64.92
2022-09-09T22:26:02.720Z,64.96
2022-09-09T22:28:30.919Z,65.06
2022-09-09T22:30:58.816Z,65.14
2022-09-09T22:33:27.140Z,65.01
2022-09-09T22:35:56.429Z,64.74
2022-09-09T22:38:24.345Z,64.82
2022-09-09T22:40:52.614Z,64.83
2022-09-09T22:43:22.178Z,65.12
2022-09-09T22:45:51.133Z,65.33
2022-09-09T22:48:19.626Z,65.36
2022-09-09T22:50:47.647Z,65.44
2022-09-09T22:53:18.679Z,65.16
2022-09-09T22:55:58.423Z,65.21
2022-09-09T22:58:26.499Z,65.30
2022-09-09T23:00:58.566Z,65.04
2022-09-09T23:03:26.490Z,64.86
2022-09-09T23:05:57.426Z,64.88
2022-09-09T23:08:32.248Z,64.80
2022-09-09T23:11:00.966Z,64.95
2022-09-09T23:13:33.085Z,63.96
2022-09-09T23:16:03.947Z,64.12
2022-09-09T23:18:33.731Z,63.61
2022-09-09T23:21:02.161Z,63.28
2022-09-09T23:23:31.276Z,63.15
2022-09-09T23:26:02.656Z,63.04
2022-09-09T23:28:32.007Z,63.25
2022-09-09T23:31:00.033Z,63.41
2022-09-09T23:33:27.889Z,63.63
2022-09-09T23:36:02.601Z,63.66
2022-09-09T23:38:31.942Z,63.69
2022-09-09T23:41:02.324Z,64.03
2022-09-09T23:43:30.322Z,64.03
2022-09-09T23:46:00.821Z,63.82
2022-09-09T23:48:29.183Z,63.69
2022-09-09T23:50:57.043Z,63.90
2022-09-09T23:53:24.881Z,64.20
2022-09-09T23:55:54.572Z,64.35
2022-09-09T23:58:22.373Z,64.30
